sensor_id;sensor_type;location;lat;lon;timestamp;P1;durP1;ratioP1;P2;durP2;ratioP2
15476;SDS011;7840;42.702;23.296;2022-07-29T00:00:43;11.23;;;9.68;;
15476;SDS011;7840;42.702;23.296;2022-07-29T00:03:11;11.10;;;9.90;;
15476;SDS011;7840;42.702;23.296;2022-07-29T00:05:39;10.52;;;9.63;;
15476;SDS011;7840;42.702;23.296;2022-07-29T00:08:08;11.15;;;9.88;;
15476;SDS011;7840;42.702;23.296;2022-07-29T00:10:37;10.63;;;9.82;;
15476;SDS011;7840;42.702;23.296;2022-07-29T00:13:11;11.18;;;10.25;;
15476;SDS011;7840;42.702;23.296;2022-07-29T00:15:41;11.70;;;10.60;;
15476;SDS011;7840;42.702;23.296;2022-07-29T00:18:13;11.73;;;10.82;;
15476;SDS011;7840;42.702;23.296;2022-07-29T00:20:41;12.07;;;11.07;;
15476;SDS011;7840;42.702;23.296;2022-07-29T00:23:09;12.52;;;11.23;;
15476;SDS011;7840;42.702;23.296;2022-07-29T00:25:38;12.25;;;11.23;;
15476;SDS011;7840;42.702;23.296;2022-07-29T00:28:06;13.02;;;11.85;;
15476;SDS011;7840;42.702;23.296;2022-07-29T00:30:34;11.88;;;10.88;;
15476;SDS011;7840;42.702;23.296;2022-07-29T00:33:01;11.95;;;10.85;;
15476;SDS011;7840;42.702;23.296;2022-07-29T00:35:29;14.30;;;12.40;;
15476;SDS011;7840;42.702;23.296;2022-07-29T00:38:11;13.68;;;12.48;;
15476;SDS011;7840;42.702;23.296;2022-07-29T00:40:41;16.48;;;14.82;;
15476;SDS011;7840;42.702;23.296;2022-07-29T00:43:09;17.30;;;15.85;;
15476;SDS011;7840;42.702;23.296;2022-07-29T00:45:38;16.90;;;15.50;;
15476;SDS011;7840;42.702;23.296;2022-07-29T00:48:06;17.20;;;15.65;;
15476;SDS011;7840;42.702;23.296;2022-07-29T00:50:34;16.90;;;15.07;;
15476;SDS011;7840;42.702;23.296;2022-07-29T00:53:03;16.90;;;15.38;;
15476;SDS011;7840;42.702;23.296;2022-07-29T00:55:32;17.98;;;15.02;;
15476;SDS011;7840;42.702;23.296;2022-07-29T00:58:04;16.38;;;14.75;;
15476;SDS011;7840;42.702;23.296;2022-07-29T01:00:33;17.50;;;14.30;;
15476;SDS011;7840;42.702;23.296;2022-07-29T01:03:02;15.57;;;14.18;;
15476;SDS011;7840;42.702;23.296;2022-07-29T01:05:29;15.60;;;13.93;;
15476;SDS011;7840;42.702;23.296;2022-07-29T01:07:57;16.05;;;14.50;;
15476;SDS011;7840;42.702;23.296;2022-07-29T01:10:26;16.45;;;14.95;;
15476;SDS011;7840;42.702;23.296;2022-07-29T01:12:58;15.93;;;14.60;;
15476;SDS011;7840;42.702;23.296;2022-07-29T01:15:28;16.88;;;15.27;;
15476;SDS011;7840;42.702;23.296;2022-07-29T01:17:58;15.77;;;14.38;;
15476;SDS011;7840;42.702;23.296;2022-07-29T01:20:47;16.23;;;14.73;;
15476;SDS011;7840;42.702;23.296;2022-07-29T01:23:48;16.30;;;14.57;;
15476;SDS011;7840;42.702;23.296;2022-07-29T01:29:17;15.30;;;13.75;;
15476;SDS011;7840;42.702;23.296;2022-07-29T01:32:01;15.05;;;13.75;;
15476;SDS011;7840;42.702;23.296;2022-07-29T01:34:34;15.10;;;13.80;;
15476;SDS011;7840;42.702;23.296;2022-07-29T01:37:11;15.65;;;14.23;;
15476;SDS011;7840;42.702;23.296;2022-07-29T01:39:45;15.43;;;14.15;;
15476;SDS011;7840;42.702;23.296;2022-07-29T01:42:17;16.60;;;15.20;;
15476;SDS011;7840;42.702;23.296;2022-07-29T01:44:55;15.63;;;14.23;;
15476;SDS011;7840;42.702;23.296;2022-07-29T01:47:38;15.60;;;14.20;;
15476;SDS011;7840;42.702;23.296;2022-07-29T01:50:11;16.33;;;14.90;;
15476;SDS011;7840;42.702;23.296;2022-07-29T01:52:42;15.02;;;13.60;;
15476;SDS011;7840;42.702;23.296;2022-07-29T01:55:13;16.95;;;14.05;;
15476;SDS011;7840;42.702;23.296;2022-07-29T01:57:45;16.92;;;15.15;;
15476;SDS011;7840;42.702;23.296;2022-07-29T02:00:17;22.45;;;15.10;;
15476;SDS011;7840;42.702;23.296;2022-07-29T02:05:35;15.88;;;14.55;;
15476;SDS011;7840;42.702;23.296;2022-07-29T02:08:22;15.60;;;14.30;;
15476;SDS011;7840;42.702;23.296;2022-07-29T02:10:52;16.30;;;14.93;;
15476;SDS011;7840;42.702;23.296;2022-07-29T02:13:22;15.10;;;13.73;;
15476;SDS011;7840;42.702;23.296;2022-07-29T02:15:55;15.60;;;14.30;;
15476;SDS011;7840;42.702;23.296;2022-07-29T02:18:24;14.55;;;13.13;;
15476;SDS011;7840;42.702;23.296;2022-07-29T02:20:56;14.98;;;13.73;;
15476;SDS011;7840;42.702;23.296;2022-07-29T02:23:26;15.02;;;13.63;;
15476;SDS011;7840;42.702;23.296;2022-07-29T02:25:56;15.43;;;14.02;;
15476;SDS011;7840;42.702;23.296;2022-07-29T02:28:26;16.27;;;14.60;;
15476;SDS011;7840;42.702;23.296;2022-07-29T02:30:59;16.77;;;13.88;;
15476;SDS011;7840;42.702;23.296;2022-07-29T02:33:29;19.80;;;15.55;;
15476;SDS011;7840;42.702;23.296;2022-07-29T02:36:02;16.02;;;13.25;;
15476;SDS011;7840;42.702;23.296;2022-07-29T02:38:30;16.02;;;14.18;;
15476;SDS011;7840;42.702;23.296;2022-07-29T02:41:16;14.82;;;13.15;;
15476;SDS011;7840;42.702;23.296;2022-07-29T02:43:46;17.67;;;13.10;;
15476;SDS011;7840;42.702;23.296;2022-07-29T02:46:18;15.35;;;13.98;;
15476;SDS011;7840;42.702;23.296;2022-07-29T02:48:55;15.68;;;14.00;;
15476;SDS011;7840;42.702;23.296;2022-07-29T02:51:27;19.55;;;14.77;;
15476;SDS011;7840;42.702;23.296;2022-07-29T02:54:02;16.13;;;14.07;;
15476;SDS011;7840;42.702;23.296;2022-07-29T02:56:34;16.48;;;14.93;;
15476;SDS011;7840;42.702;23.296;2022-07-29T02:59:06;16.10;;;14.57;;
15476;SDS011;7840;42.702;23.296;2022-07-29T03:01:38;16.23;;;14.85;;
15476;SDS011;7840;42.702;23.296;2022-07-29T03:04:09;17.33;;;15.52;;
15476;SDS011;7840;42.702;23.296;2022-07-29T03:06:39;19.48;;;17.63;;
15476;SDS011;7840;42.702;23.296;2022-07-29T03:09:16;19.33;;;17.35;;
15476;SDS011;7840;42.702;23.296;2022-07-29T03:11:58;19.63;;;17.88;;
15476;SDS011;7840;42.702;23.296;2022-07-29T03:14:27;19.55;;;17.88;;
15476;SDS011;7840;42.702;23.296;2022-07-29T03:16:57;20.85;;;19.08;;
15476;SDS011;7840;42.702;23.296;2022-07-29T03:19:26;21.30;;;19.20;;
15476;SDS011;7840;42.702;23.296;2022-07-29T03:21:55;21.02;;;19.10;;
15476;SDS011;7840;42.702;23.296;2022-07-29T03:24:28;21.80;;;18.20;;
15476;SDS011;7840;42.702;23.296;2022-07-29T03:26:57;18.20;;;16.65;;
15476;SDS011;7840;42.702;23.296;2022-07-29T03:29:35;17.35;;;15.80;;
15476;SDS011;7840;42.702;23.296;2022-07-29T03:34:46;18.95;;;17.17;;
15476;SDS011;7840;42.702;23.296;2022-07-29T03:37:14;17.27;;;15.63;;
15476;SDS011;7840;42.702;23.296;2022-07-29T03:39:44;17.48;;;15.80;;
15476;SDS011;7840;42.702;23.296;2022-07-29T03:42:13;17.52;;;15.57;;
15476;SDS011;7840;42.702;23.296;2022-07-29T03:44:47;17.70;;;15.93;;
15476;SDS011;7840;42.702;23.296;2022-07-29T03:47:17;16.90;;;15.40;;
15476;SDS011;7840;42.702;23.296;2022-07-29T03:49:52;17.40;;;15.75;;
15476;SDS011;7840;42.702;23.296;2022-07-29T03:52:24;18.70;;;16.75;;
15476;SDS011;7840;42.702;23.296;2022-07-29T03:54:52;22.58;;;18.38;;
15476;SDS011;7840;42.702;23.296;2022-07-29T03:57:20;19.58;;;17.02;;
15476;SDS011;7840;42.702;23.296;2022-07-29T04:00:04;19.13;;;17.52;;
15476;SDS011;7840;42.702;23.296;2022-07-29T04:02:34;19.40;;;17.50;;
15476;SDS011;7840;42.702;23.296;2022-07-29T04:05:04;19.70;;;17.63;;
15476;SDS011;7840;42.702;23.296;2022-07-29T04:07:37;18.75;;;17.05;;
15476;SDS011;7840;42.702;23.296;2022-07-29T04:10:05;18.55;;;16.63;;
15476;SDS011;7840;42.702;23.296;2022-07-29T04:12:34;17.80;;;16.10;;
15476;SDS011;7840;42.702;23.296;2022-07-29T04:15:02;17.85;;;16.33;;
15476;SDS011;7840;42.702;23.296;2022-07-29T04:17:30;17.73;;;16.10;;
15476;SDS011;7840;42.702;23.296;2022-07-29T04:19:59;17.60;;;16.15;;
15476;SDS011;7840;42.702;23.296;2022-07-29T04:22:27;17.10;;;15.73;;
15476;SDS011;7840;42.702;23.296;2022-07-29T04:24:55;17.85;;;16.20;;
15476;SDS011;7840;42.702;23.296;2022-07-29T04:27:22;18.15;;;16.48;;
15476;SDS011;7840;42.702;23.296;2022-07-29T04:29:50;18.00;;;16.23;;
15476;SDS011;7840;42.702;23.296;2022-07-29T04:32:18;16.27;;;14.88;;
15476;SDS011;7840;42.702;23.296;2022-07-29T04:34:46;16.42;;;14.98;;
15476;SDS011;7840;42.702;23.296;2022-07-29T04:37:15;17.33;;;15.70;;
15476;SDS011;7840;42.702;23.296;2022-07-29T04:39:46;16.33;;;14.90;;
15476;SDS011;7840;42.702;23.296;2022-07-29T04:42:14;16.67;;;15.20;;
15476;SDS011;7840;42.702;23.296;2022-07-29T04:44:43;15.68;;;14.10;;
15476;SDS011;7840;42.702;23.296;2022-07-29T04:47:11;16.55;;;14.98;;
15476;SDS011;7840;42.702;23.296;2022-07-29T04:49:39;15.98;;;14.48;;
15476;SDS011;7840;42.702;23.296;2022-07-29T04:52:07;16.80;;;15.10;;
15476;SDS011;7840;42.702;23.296;2022-07-29T04:54:36;15.90;;;14.38;;
15476;SDS011;7840;42.702;23.296;2022-07-29T04:57:04;16.48;;;14.73;;
15476;SDS011;7840;42.702;23.296;2022-07-29T04:59:41;16.58;;;14.82;;
15476;SDS011;7840;42.702;23.296;2022-07-29T05:02:12;15.32;;;13.80;;
15476;SDS011;7840;42.702;23.296;2022-07-29T05:04:40;14.60;;;13.10;;
15476;SDS011;7840;42.702;23.296;2022-07-29T05:07:09;16.58;;;13.45;;
15476;SDS011;7840;42.702;23.296;2022-07-29T05:09:39;15.52;;;13.98;;
15476;SDS011;7840;42.702;23.296;2022-07-29T05:12:12;15.43;;;13.93;;
15476;SDS011;7840;42.702;23.296;2022-07-29T05:14:46;15.68;;;14.27;;
15476;SDS011;7840;42.702;23.296;2022-07-29T05:17:14;14.57;;;12.93;;
15476;SDS011;7840;42.702;23.296;2022-07-29T05:19:43;14.98;;;13.50;;
15476;SDS011;7840;42.702;23.296;2022-07-29T05:22:11;16.52;;;14.90;;
15476;SDS011;7840;42.702;23.296;2022-07-29T05:24:54;15.80;;;13.85;;
15476;SDS011;7840;42.702;23.296;2022-07-29T05:27:22;14.88;;;13.50;;
15476;SDS011;7840;42.702;23.296;2022-07-29T05:29:51;10.35;;;9.35;;
15476;SDS011;7840;42.702;23.296;2022-07-29T05:32:22;13.80;;;11.73;;
15476;SDS011;7840;42.702;23.296;2022-07-29T05:34:50;15.05;;;11.98;;
15476;SDS011;7840;42.702;23.296;2022-07-29T05:37:18;10.88;;;9.30;;
15476;SDS011;7840;42.702;23.296;2022-07-29T05:39:46;13.70;;;8.85;;
15476;SDS011;7840;42.702;23.296;2022-07-29T05:42:17;9.15;;;8.35;;
15476;SDS011;7840;42.702;23.296;2022-07-29T05:44:45;11.82;;;8.50;;
15476;SDS011;7840;42.702;23.296;2022-07-29T05:47:13;12.25;;;7.68;;
15476;SDS011;7840;42.702;23.296;2022-07-29T05:49:41;9.20;;;7.88;;
15476;SDS011;7840;42.702;23.296;2022-07-29T05:52:09;8.55;;;7.75;;
15476;SDS011;7840;42.702;23.296;2022-07-29T05:54:38;8.10;;;7.30;;
15476;SDS011;7840;42.702;23.296;2022-07-29T05:57:06;10.77;;;7.68;;
15476;SDS011;7840;42.702;23.296;2022-07-29T05:59:38;8.30;;;6.97;;
15476;SDS011;7840;42.702;23.296;2022-07-29T06:02:06;9.68;;;7.07;;
15476;SDS011;7840;42.702;23.296;2022-07-29T06:04:33;11.02;;;7.68;;
15476;SDS011;7840;42.702;23.296;2022-07-29T06:07:01;8.65;;;7.85;;
15476;SDS011;7840;42.702;23.296;2022-07-29T06:09:29;7.57;;;6.88;;
15476;SDS011;7840;42.702;23.296;2022-07-29T06:11:57;12.43;;;7.22;;
15476;SDS011;7840;42.702;23.296;2022-07-29T06:14:28;8.48;;;7.28;;
15476;SDS011;7840;42.702;23.296;2022-07-29T06:16:57;9.05;;;6.65;;
15476;SDS011;7840;42.702;23.296;2022-07-29T06:19:24;7.20;;;6.50;;
15476;SDS011;7840;42.702;23.296;2022-07-29T06:21:52;7.32;;;6.53;;
15476;SDS011;7840;42.702;23.296;2022-07-29T06:24:20;6.82;;;5.95;;
15476;SDS011;7840;42.702;23.296;2022-07-29T06:27:02;7.55;;;6.25;;
15476;SDS011;7840;42.702;23.296;2022-07-29T06:29:31;7.70;;;5.95;;
15476;SDS011;7840;42.702;23.296;2022-07-29T06:32:02;6.97;;;6.20;;
15476;SDS011;7840;42.702;23.296;2022-07-29T06:34:39;8.23;;;6.50;;
15476;SDS011;7840;42.702;23.296;2022-07-29T06:37:22;7.57;;;5.93;;
15476;SDS011;7840;42.702;23.296;2022-07-29T06:40:03;9.93;;;6.03;;
15476;SDS011;7840;42.702;23.296;2022-07-29T06:42:48;7.72;;;6.20;;
15476;SDS011;7840;42.702;23.296;2022-07-29T06:45:16;6.78;;;6.15;;
15476;SDS011;7840;42.702;23.296;2022-07-29T06:47:48;6.80;;;5.68;;
15476;SDS011;7840;42.702;23.296;2022-07-29T06:50:16;6.15;;;5.30;;
15476;SDS011;7840;42.702;23.296;2022-07-29T06:52:43;8.27;;;5.60;;
15476;SDS011;7840;42.702;23.296;2022-07-29T06:55:11;5.85;;;4.88;;
15476;SDS011;7840;42.702;23.296;2022-07-29T06:57:39;4.72;;;4.32;;
15476;SDS011;7840;42.702;23.296;2022-07-29T07:00:07;5.88;;;5.28;;
15476;SDS011;7840;42.702;23.296;2022-07-29T07:02:36;7.90;;;5.38;;
15476;SDS011;7840;42.702;23.296;2022-07-29T07:05:06;5.82;;;5.28;;
15476;SDS011;7840;42.702;23.296;2022-07-29T07:07:34;6.70;;;5.35;;
15476;SDS011;7840;42.702;23.296;2022-07-29T07:10:01;8.18;;;4.40;;
15476;SDS011;7840;42.702;23.296;2022-07-29T07:12:32;6.30;;;4.57;;
15476;SDS011;7840;42.702;23.296;2022-07-29T07:15:00;6.60;;;4.82;;
15476;SDS011;7840;42.702;23.296;2022-07-29T07:17:28;8.75;;;4.72;;
15476;SDS011;7840;42.702;23.296;2022-07-29T07:19:55;5.85;;;5.03;;
15476;SDS011;7840;42.702;23.296;2022-07-29T07:22:38;6.15;;;4.68;;
15476;SDS011;7840;42.702;23.296;2022-07-29T07:25:06;6.40;;;4.38;;
15476;SDS011;7840;42.702;23.296;2022-07-29T07:27:42;4.82;;;4.50;;
15476;SDS011;7840;42.702;23.296;2022-07-29T07:30:10;7.18;;;4.72;;
15476;SDS011;7840;42.702;23.296;2022-07-29T07:32:38;4.60;;;4.10;;
15476;SDS011;7840;42.702;23.296;2022-07-29T07:35:09;5.30;;;4.80;;
15476;SDS011;7840;42.702;23.296;2022-07-29T07:37:38;7.45;;;4.53;;
15476;SDS011;7840;42.702;23.296;2022-07-29T07:40:07;8.73;;;4.65;;
15476;SDS011;7840;42.702;23.296;2022-07-29T07:42:37;7.03;;;4.70;;
15476;SDS011;7840;42.702;23.296;2022-07-29T07:45:07;7.57;;;4.53;;
15476;SDS011;7840;42.702;23.296;2022-07-29T07:47:35;6.53;;;4.07;;
15476;SDS011;7840;42.702;23.296;2022-07-29T07:50:04;5.05;;;3.97;;
15476;SDS011;7840;42.702;23.296;2022-07-29T07:52:33;9.02;;;4.40;;
15476;SDS011;7840;42.702;23.296;2022-07-29T07:55:12;6.25;;;4.05;;
15476;SDS011;7840;42.702;23.296;2022-07-29T07:57:40;4.43;;;4.03;;
15476;SDS011;7840;42.702;23.296;2022-07-29T08:00:09;5.05;;;4.10;;
15476;SDS011;7840;42.702;23.296;2022-07-29T08:02:40;4.40;;;3.65;;
15476;SDS011;7840;42.702;23.296;2022-07-29T08:05:10;4.38;;;4.00;;
15476;SDS011;7840;42.702;23.296;2022-07-29T08:08:00;5.90;;;4.10;;
15476;SDS011;7840;42.702;23.296;2022-07-29T08:10:30;8.82;;;4.35;;
15476;SDS011;7840;42.702;23.296;2022-07-29T08:13:15;5.15;;;4.13;;
15476;SDS011;7840;42.702;23.296;2022-07-29T08:15:43;5.50;;;4.25;;
15476;SDS011;7840;42.702;23.296;2022-07-29T08:18:11;4.72;;;4.07;;
15476;SDS011;7840;42.702;23.296;2022-07-29T08:20:39;4.45;;;4.10;;
15476;SDS011;7840;42.702;23.296;2022-07-29T08:23:07;4.68;;;4.28;;
15476;SDS011;7840;42.702;23.296;2022-07-29T08:25:36;7.10;;;4.05;;
15476;SDS011;7840;42.702;23.296;2022-07-29T08:28:04;5.13;;;4.03;;
15476;SDS011;7840;42.702;23.296;2022-07-29T08:30:32;6.90;;;3.78;;
15476;SDS011;7840;42.702;23.296;2022-07-29T08:33:00;4.80;;;4.10;;
15476;SDS011;7840;42.702;23.296;2022-07-29T08:35:28;4.55;;;3.75;;
15476;SDS011;7840;42.702;23.296;2022-07-29T08:37:57;6.13;;;3.80;;
15476;SDS011;7840;42.702;23.296;2022-07-29T08:40:25;3.88;;;3.55;;
15476;SDS011;7840;42.702;23.296;2022-07-29T08:42:54;5.45;;;3.92;;
15476;SDS011;7840;42.702;23.296;2022-07-29T08:45:22;3.50;;;3.30;;
15476;SDS011;7840;42.702;23.296;2022-07-29T08:47:51;3.72;;;3.40;;
15476;SDS011;7840;42.702;23.296;2022-07-29T08:50:19;3.97;;;3.33;;
15476;SDS011;7840;42.702;23.296;2022-07-29T08:52:47;6.68;;;3.70;;
15476;SDS011;7840;42.702;23.296;2022-07-29T08:55:17;4.28;;;3.67;;
15476;SDS011;7840;42.702;23.296;2022-07-29T08:57:46;4.68;;;3.75;;
15476;SDS011;7840;42.702;23.296;2022-07-29T09:00:15;3.90;;;3.50;;
15476;SDS011;7840;42.702;23.296;2022-07-29T09:03:04;3.70;;;3.40;;
15476;SDS011;7840;42.702;23.296;2022-07-29T09:05:41;5.28;;;3.50;;
15476;SDS011;7840;42.702;23.296;2022-07-29T09:08:11;5.25;;;3.67;;
15476;SDS011;7840;42.702;23.296;2022-07-29T09:10:39;3.70;;;3.35;;
15476;SDS011;7840;42.702;23.296;2022-07-29T09:13:10;4.10;;;3.80;;
15476;SDS011;7840;42.702;23.296;2022-07-29T09:15:39;5.75;;;3.63;;
15476;SDS011;7840;42.702;23.296;2022-07-29T09:18:35;4.38;;;3.60;;
15476;SDS011;7840;42.702;23.296;2022-07-29T09:21:08;4.07;;;3.78;;
15476;SDS011;7840;42.702;23.296;2022-07-29T09:24:03;3.95;;;3.30;;
15476;SDS011;7840;42.702;23.296;2022-07-29T09:26:33;4.85;;;3.70;;
15476;SDS011;7840;42.702;23.296;2022-07-29T09:29:08;6.78;;;4.13;;
15476;SDS011;7840;42.702;23.296;2022-07-29T09:31:46;3.97;;;3.40;;
15476;SDS011;7840;42.702;23.296;2022-07-29T09:34:15;3.50;;;3.20;;
15476;SDS011;7840;42.702;23.296;2022-07-29T09:36:49;4.18;;;3.22;;
15476;SDS011;7840;42.702;23.296;2022-07-29T09:39:26;3.85;;;2.90;;
15476;SDS011;7840;42.702;23.296;2022-07-29T09:41:58;3.50;;;3.20;;
15476;SDS011;7840;42.702;23.296;2022-07-29T09:44:27;4.05;;;3.20;;
15476;SDS011;7840;42.702;23.296;2022-07-29T09:47:10;3.65;;;3.35;;
15476;SDS011;7840;42.702;23.296;2022-07-29T09:49:50;4.18;;;3.83;;
15476;SDS011;7840;42.702;23.296;2022-07-29T09:52:19;5.53;;;3.75;;
15476;SDS011;7840;42.702;23.296;2022-07-29T09:54:47;4.05;;;3.63;;
15476;SDS011;7840;42.702;23.296;2022-07-29T09:57:22;3.55;;;3.25;;
15476;SDS011;7840;42.702;23.296;2022-07-29T09:59:58;4.55;;;3.78;;
15476;SDS011;7840;42.702;23.296;2022-07-29T10:02:29;4.57;;;3.70;;
15476;SDS011;7840;42.702;23.296;2022-07-29T10:04:58;4.20;;;3.90;;
15476;SDS011;7840;42.702;23.296;2022-07-29T10:07:42;4.43;;;3.95;;
15476;SDS011;7840;42.702;23.296;2022-07-29T10:10:26;4.05;;;3.75;;
15476;SDS011;7840;42.702;23.296;2022-07-29T10:12:57;4.20;;;3.80;;
15476;SDS011;7840;42.702;23.296;2022-07-29T10:15:27;3.72;;;3.42;;
15476;SDS011;7840;42.702;23.296;2022-07-29T10:17:58;5.05;;;3.80;;
15476;SDS011;7840;42.702;23.296;2022-07-29T10:20:28;3.90;;;3.60;;
15476;SDS011;7840;42.702;23.296;2022-07-29T10:23:11;5.28;;;3.45;;
15476;SDS011;7840;42.702;23.296;2022-07-29T10:25:44;5.72;;;3.10;;
15476;SDS011;7840;42.702;23.296;2022-07-29T10:28:18;5.90;;;3.33;;
15476;SDS011;7840;42.702;23.296;2022-07-29T10:30:50;4.35;;;3.95;;
15476;SDS011;7840;42.702;23.296;2022-07-29T10:33:25;5.35;;;3.97;;
15476;SDS011;7840;42.702;23.296;2022-07-29T10:36:10;5.05;;;3.92;;
15476;SDS011;7840;42.702;23.296;2022-07-29T10:38:54;4.68;;;4.00;;
15476;SDS011;7840;42.702;23.296;2022-07-29T10:41:39;5.10;;;3.75;;
15476;SDS011;7840;42.702;23.296;2022-07-29T10:44:20;4.82;;;3.53;;
15476;SDS011;7840;42.702;23.296;2022-07-29T10:46:49;4.65;;;3.50;;
15476;SDS011;7840;42.702;23.296;2022-07-29T10:49:20;4.18;;;3.78;;
15476;SDS011;7840;42.702;23.296;2022-07-29T10:51:57;3.42;;;3.10;;
15476;SDS011;7840;42.702;23.296;2022-07-29T10:54:39;5.30;;;3.38;;
15476;SDS011;7840;42.702;23.296;2022-07-29T10:57:26;5.45;;;3.50;;
15476;SDS011;7840;42.702;23.296;2022-07-29T11:03:01;4.45;;;3.10;;
15476;SDS011;7840;42.702;23.296;2022-07-29T11:05:56;4.18;;;3.40;;
15476;SDS011;7840;42.702;23.296;2022-07-29T11:08:24;5.43;;;3.40;;
15476;SDS011;7840;42.702;23.296;2022-07-29T11:10:53;7.70;;;3.95;;
15476;SDS011;7840;42.702;23.296;2022-07-29T11:14:06;4.03;;;3.63;;
15476;SDS011;7840;42.702;23.296;2022-07-29T11:19:25;4.60;;;3.92;;
15476;SDS011;7840;42.702;23.296;2022-07-29T11:21:54;5.68;;;3.80;;
15476;SDS011;7840;42.702;23.296;2022-07-29T11:24:22;4.50;;;3.60;;
15476;SDS011;7840;42.702;23.296;2022-07-29T11:27:05;3.97;;;3.67;;
15476;SDS011;7840;42.702;23.296;2022-07-29T11:29:38;3.78;;;3.33;;
15476;SDS011;7840;42.702;23.296;2022-07-29T11:32:15;3.67;;;3.38;;
15476;SDS011;7840;42.702;23.296;2022-07-29T11:34:45;4.53;;;3.75;;
15476;SDS011;7840;42.702;23.296;2022-07-29T11:37:18;4.00;;;3.70;;
15476;SDS011;7840;42.702;23.296;2022-07-29T11:40:11;7.80;;;3.72;;
15476;SDS011;7840;42.702;23.296;2022-07-29T11:42:44;4.88;;;4.40;;
15476;SDS011;7840;42.702;23.296;2022-07-29T11:45:14;4.07;;;3.78;;
15476;SDS011;7840;42.702;23.296;2022-07-29T11:47:48;3.70;;;3.40;;
15476;SDS011;7840;42.702;23.296;2022-07-29T11:50:26;4.28;;;3.83;;
15476;SDS011;7840;42.702;23.296;2022-07-29T11:52:56;5.32;;;4.00;;
15476;SDS011;7840;42.702;23.296;2022-07-29T11:55:25;4.70;;;4.30;;
15476;SDS011;7840;42.702;23.296;2022-07-29T11:57:53;5.05;;;4.07;;
15476;SDS011;7840;42.702;23.296;2022-07-29T12:00:29;4.65;;;4.18;;
15476;SDS011;7840;42.702;23.296;2022-07-29T12:03:01;4.03;;;3.63;;
15476;SDS011;7840;42.702;23.296;2022-07-29T12:05:34;5.88;;;5.03;;
15476;SDS011;7840;42.702;23.296;2022-07-29T12:08:06;4.28;;;3.88;;
15476;SDS011;7840;42.702;23.296;2022-07-29T12:10:43;6.70;;;3.92;;
15476;SDS011;7840;42.702;23.296;2022-07-29T12:13:12;4.40;;;4.03;;
15476;SDS011;7840;42.702;23.296;2022-07-29T12:15:40;3.90;;;3.50;;
15476;SDS011;7840;42.702;23.296;2022-07-29T12:18:10;4.22;;;3.92;;
15476;SDS011;7840;42.702;23.296;2022-07-29T12:20:39;4.30;;;3.90;;
15476;SDS011;7840;42.702;23.296;2022-07-29T12:23:09;6.18;;;4.18;;
15476;SDS011;7840;42.702;23.296;2022-07-29T12:25:38;7.35;;;4.20;;
15476;SDS011;7840;42.702;23.296;2022-07-29T12:28:08;4.68;;;4.38;;
15476;SDS011;7840;42.702;23.296;2022-07-29T12:30:41;5.35;;;3.88;;
15476;SDS011;7840;42.702;23.296;2022-07-29T12:33:11;4.22;;;3.92;;
15476;SDS011;7840;42.702;23.296;2022-07-29T12:36:00;4.50;;;4.10;;
15476;SDS011;7840;42.702;23.296;2022-07-29T12:38:33;4.57;;;4.28;;
15476;SDS011;7840;42.702;23.296;2022-07-29T12:41:02;5.22;;;4.10;;
15476;SDS011;7840;42.702;23.296;2022-07-29T12:43:30;4.18;;;3.85;;
15476;SDS011;7840;42.702;23.296;2022-07-29T12:46:00;4.65;;;4.25;;
15476;SDS011;7840;42.702;23.296;2022-07-29T12:48:43;4.60;;;4.30;;
15476;SDS011;7840;42.702;23.296;2022-07-29T12:51:25;7.40;;;4.60;;
15476;SDS011;7840;42.702;23.296;2022-07-29T12:54:05;4.20;;;3.90;;
15476;SDS011;7840;42.702;23.296;2022-07-29T12:56:35;4.68;;;4.25;;
15476;SDS011;7840;42.702;23.296;2022-07-29T12:59:10;4.55;;;4.20;;
15476;SDS011;7840;42.702;23.296;2022-07-29T13:01:49;4.80;;;4.40;;
15476;SDS011;7840;42.702;23.296;2022-07-29T13:04:27;5.28;;;4.85;;
15476;SDS011;7840;42.702;23.296;2022-07-29T13:07:08;5.63;;;5.13;;
15476;SDS011;7840;42.702;23.296;2022-07-29T13:09:41;5.15;;;4.75;;
15476;SDS011;7840;42.702;23.296;2022-07-29T13:12:13;5.35;;;4.95;;
15476;SDS011;7840;42.702;23.296;2022-07-29T13:14:42;4.60;;;4.20;;
15476;SDS011;7840;42.702;23.296;2022-07-29T13:17:12;6.32;;;4.70;;
15476;SDS011;7840;42.702;23.296;2022-07-29T13:19:41;6.50;;;5.13;;
15476;SDS011;7840;42.702;23.296;2022-07-29T13:22:10;5.15;;;4.75;;
15476;SDS011;7840;42.702;23.296;2022-07-29T13:24:48;5.82;;;5.10;;
15476;SDS011;7840;42.702;23.296;2022-07-29T13:27:17;6.85;;;4.60;;
15476;SDS011;7840;42.702;23.296;2022-07-29T13:30:08;5.72;;;5.03;;
15476;SDS011;7840;42.702;23.296;2022-07-29T13:32:39;5.32;;;4.88;;
15476;SDS011;7840;42.702;23.296;2022-07-29T13:35:14;4.88;;;4.50;;
15476;SDS011;7840;42.702;23.296;2022-07-29T13:37:45;5.47;;;4.90;;
15476;SDS011;7840;42.702;23.296;2022-07-29T13:40:34;9.48;;;5.05;;
15476;SDS011;7840;42.702;23.296;2022-07-29T13:43:02;4.82;;;4.32;;
15476;SDS011;7840;42.702;23.296;2022-07-29T13:45:37;5.35;;;4.85;;
15476;SDS011;7840;42.702;23.296;2022-07-29T13:48:04;5.82;;;5.15;;
15476;SDS011;7840;42.702;23.296;2022-07-29T13:50:32;5.22;;;4.72;;
15476;SDS011;7840;42.702;23.296;2022-07-29T13:53:02;7.53;;;4.70;;
15476;SDS011;7840;42.702;23.296;2022-07-29T13:55:30;4.63;;;4.32;;
15476;SDS011;7840;42.702;23.296;2022-07-29T13:57:59;5.80;;;4.65;;
15476;SDS011;7840;42.702;23.296;2022-07-29T14:00:30;6.82;;;4.78;;
15476;SDS011;7840;42.702;23.296;2022-07-29T14:03:01;5.13;;;4.65;;
15476;SDS011;7840;42.702;23.296;2022-07-29T14:05:29;5.03;;;4.40;;
15476;SDS011;7840;42.702;23.296;2022-07-29T14:07:57;5.82;;;5.25;;
15476;SDS011;7840;42.702;23.296;2022-07-29T14:10:40;5.00;;;4.60;;
15476;SDS011;7840;42.702;23.296;2022-07-29T14:13:24;5.00;;;4.45;;
15476;SDS011;7840;42.702;23.296;2022-07-29T14:15:51;5.05;;;4.57;;
15476;SDS011;7840;42.702;23.296;2022-07-29T14:18:19;5.60;;;4.45;;
15476;SDS011;7840;42.702;23.296;2022-07-29T14:20:47;4.72;;;4.43;;
15476;SDS011;7840;42.702;23.296;2022-07-29T14:23:16;5.38;;;4.75;;
15476;SDS011;7840;42.702;23.296;2022-07-29T14:25:44;5.30;;;4.70;;
15476;SDS011;7840;42.702;23.296;2022-07-29T14:28:13;4.78;;;4.40;;
15476;SDS011;7840;42.702;23.296;2022-07-29T14:30:43;5.10;;;4.55;;
15476;SDS011;7840;42.702;23.296;2022-07-29T14:33:11;4.55;;;4.25;;
15476;SDS011;7840;42.702;23.296;2022-07-29T14:35:44;5.85;;;5.00;;
15476;SDS011;7840;42.702;23.296;2022-07-29T14:38:12;7.75;;;5.30;;
15476;SDS011;7840;42.702;23.296;2022-07-29T14:40:39;8.75;;;4.38;;
15476;SDS011;7840;42.702;23.296;2022-07-29T14:43:07;5.28;;;4.45;;
15476;SDS011;7840;42.702;23.296;2022-07-29T14:45:35;7.38;;;4.68;;
15476;SDS011;7840;42.702;23.296;2022-07-29T14:48:04;4.97;;;4.57;;
15476;SDS011;7840;42.702;23.296;2022-07-29T14:50:32;4.80;;;4.40;;
15476;SDS011;7840;42.702;23.296;2022-07-29T14:53:00;5.05;;;4.65;;
15476;SDS011;7840;42.702;23.296;2022-07-29T14:55:27;6.50;;;4.40;;
15476;SDS011;7840;42.702;23.296;2022-07-29T14:57:55;4.85;;;4.53;;
15476;SDS011;7840;42.702;23.296;2022-07-29T15:00:24;4.95;;;4.50;;
15476;SDS011;7840;42.702;23.296;2022-07-29T15:02:52;4.63;;;4.30;;
15476;SDS011;7840;42.702;23.296;2022-07-29T15:05:21;7.07;;;5.00;;
15476;SDS011;7840;42.702;23.296;2022-07-29T15:07:49;4.70;;;4.32;;
15476;SDS011;7840;42.702;23.296;2022-07-29T15:10:21;4.93;;;4.53;;
15476;SDS011;7840;42.702;23.296;2022-07-29T15:12:51;6.38;;;4.65;;
15476;SDS011;7840;42.702;23.296;2022-07-29T15:15:18;4.95;;;4.55;;
15476;SDS011;7840;42.702;23.296;2022-07-29T15:17:46;5.50;;;4.93;;
15476;SDS011;7840;42.702;23.296;2022-07-29T15:20:14;6.55;;;5.05;;